Time;durP1;ratioP1;P1;durP2;ratioP2;P2;SDS_P1;SDS_P2;PMS_P1;PMS_P2;Temp;Humidity;BMP_temperature;BMP_pressure;BME280_temperature;BME280_humidity;BME280_pressure;Samples;Min_cycle;Max_cycle;Signal;HPM_P1;HPM_P2
2022/06/22 00:01:19;;;;;;;2.67;1.23;;;13.20;95.00;;;;;;5114160;28;20195;-58
2022/06/22 00:03:50;;;;;;;1.83;1.00;;;13.30;94.20;;;;;;5113876;28;20184;-58
2022/06/22 00:06:32;;;;;;;4.40;1.37;;;13.40;93.50;;;;;;5113845;28;20216;-58
2022/06/22 00:09:00;;;;;;;1.50;1.00;;;13.50;93.00;;;;;;5113551;28;20241;-59
2022/06/22 00:11:26;;;;;;;3.10;1.30;;;13.50;92.70;;;;;;5113712;28;20184;-59
2022/06/22 00:13:55;;;;;;;1.67;1.10;;;13.50;92.60;;;;;;5113266;28;20279;-57
2022/06/22 00:16:38;;;;;;;1.10;0.80;;;13.40;92.80;;;;;;5113835;28;20212;-58
2022/06/22 00:19:27;;;;;;;1.40;1.00;;;13.50;92.50;;;;;;5113519;28;20639;-57
2022/06/22 00:21:53;;;;;;;3.33;1.10;;;13.30;92.80;;;;;;5113195;28;20184;-58
2022/06/22 00:24:45;;;;;;;1.80;1.00;;;13.30;92.80;;;;;;5113579;28;20192;-58
2022/06/22 00:27:29;;;;;;;2.00;1.20;;;13.30;93.30;;;;;;5092300;28;20221;-57
2022/06/22 00:30:07;;;;;;;2.00;1.27;;;13.30;93.10;;;;;;5092989;28;20181;-57
2022/06/22 00:32:33;;;;;;;4.53;1.30;;;13.30;93.30;;;;;;5092977;28;20173;-58
2022/06/22 00:35:37;;;;;;;3.87;1.00;;;13.20;93.40;;;;;;5092944;28;20722;-59
2022/06/22 00:38:05;;;;;;;2.90;1.33;;;13.20;93.50;;;;;;5092849;28;20176;-58
2022/06/22 00:40:35;;;;;;;2.73;1.40;;;13.10;93.90;;;;;;5092664;28;20195;-58
2022/06/22 00:43:00;;;;;;;2.83;1.03;;;13.10;94.20;;;;;;5092792;28;20185;-58
2022/06/22 00:45:29;;;;;;;8.53;1.10;;;13.00;94.60;;;;;;5092753;28;20177;-59
2022/06/22 00:48:27;;;;;;;2.17;1.27;;;13.00;94.80;;;;;;5092468;28;20295;-59
2022/06/22 00:51:00;;;;;;;2.30;1.10;;;13.00;95.30;;;;;;5019698;28;20483;-58
2022/06/22 00:53:32;;;;;;;3.67;1.40;;;13.00;95.70;;;;;;5092667;28;20184;-57
2022/06/22 00:56:22;;;;;;;2.27;0.97;;;12.90;96.00;;;;;;5092167;28;20182;-58
2022/06/22 00:59:03;;;;;;;3.50;1.10;;;12.80;96.40;;;;;;5092340;28;20687;-58
2022/06/22 01:01:46;;;;;;;2.07;1.13;;;12.80;95.90;;;;;;5092493;28;20259;-57
2022/06/22 01:04:15;;;;;;;1.87;1.23;;;12.80;95.90;;;;;;5092559;28;20165;-58
2022/06/22 01:06:49;;;;;;;3.43;1.13;;;12.90;95.70;;;;;;5092303;28;20210;-57
2022/06/22 01:09:30;;;;;;;2.50;1.10;;;13.00;94.70;;;;;;5092465;28;20259;-58
2022/06/22 01:12:23;;;;;;;4.33;1.23;;;13.10;93.90;;;;;;5053955;28;20549;-58
2022/06/22 01:15:16;;;;;;;1.77;1.13;;;13.30;93.40;;;;;;5035997;28;20219;-58
2022/06/22 01:18:15;;;;;;;4.57;1.07;;;13.30;93.20;;;;;;5072147;28;20248;-58
2022/06/22 01:21:09;;;;;;;1.53;1.00;;;13.30;93.10;;;;;;5072248;28;20185;-59
2022/06/22 01:23:43;;;;;;;1.93;1.40;;;13.30;92.80;;;;;;5083372;28;20677;-58
2022/06/22 01:26:32;;;;;;;3.90;1.00;;;13.30;92.80;;;;;;5105794;28;20273;-58
2022/06/22 01:29:14;;;;;;;2.80;1.00;;;13.20;92.90;;;;;;5112383;28;20533;-58
2022/06/22 01:32:04;;;;;;;13.13;1.53;;;13.20;93.00;;;;;;5112664;28;20658;-58
2022/06/22 01:34:43;;;;;;;2.67;1.17;;;13.00;93.30;;;;;;5112453;28;20644;-58
2022/06/22 01:37:30;;;;;;;1.90;0.90;;;13.00;93.30;;;;;;5112423;28;20174;-58
2022/06/22 01:40:13;;;;;;;3.53;1.20;;;13.00;93.50;;;;;;5112171;28;20218;-58
2022/06/22 01:42:48;;;;;;;4.50;1.37;;;13.00;93.40;;;;;;5112363;28;20528;-58
2022/06/22 01:45:36;;;;;;;2.77;1.00;;;12.90;93.80;;;;;;5112734;28;20176;-58
2022/06/22 01:48:27;;;;;;;4.33;1.30;;;12.80;93.90;;;;;;5097583;28;20217;-59
2022/06/22 01:51:24;;;;;;;2.13;1.20;;;12.90;93.60;;;;;;5091485;28;20181;-59
2022/06/22 01:53:59;;;;;;;1.60;0.77;;;12.90;93.50;;;;;;5091398;28;20176;-58
2022/06/22 01:57:06;;;;;;;1.43;0.80;;;12.90;93.60;;;;;;5091811;28;20546;-58
2022/06/22 01:59:42;;;;;;;4.07;1.30;;;12.90;93.60;;;;;;5091874;28;20212;-59
2022/06/22 02:02:17;;;;;;;4.00;1.07;;;12.80;94.10;;;;;;5091455;28;20649;-58
2022/06/22 02:04:47;;;;;;;2.53;1.30;;;12.70;94.50;;;;;;5092194;28;20164;-58
2022/06/22 02:10:37;;;;;;;2.77;1.20;;;12.60;95.60;;;;;;5097258;28;20340;-59
2022/06/22 02:13:18;;;;;;;2.63;1.10;;;12.40;96.00;;;;;;5100831;28;20188;-59
2022/06/22 02:16:08;;;;;;;2.33;0.90;;;12.30;96.80;;;;;;5100538;28;20275;-58
2022/06/22 02:18:34;;;;;;;2.20;1.00;;;12.20;96.80;;;;;;5091439;28;20181;-59
2022/06/22 02:21:29;;;;;;;7.70;1.80;;;12.10;96.70;;;;;;5091682;28;20263;-59
2022/06/22 02:24:15;;;;;;;6.10;1.60;;;12.10;97.70;;;;;;5073693;28;20192;-59
2022/06/22 02:26:51;;;;;;;4.43;1.50;;;12.10;97.40;;;;;;5111696;28;20632;-59
2022/06/22 02:29:21;;;;;;;3.13;1.20;;;12.10;97.60;;;;;;5111946;28;20236;-59
2022/06/22 02:31:48;;;;;;;2.23;1.20;;;12.10;97.20;;;;;;5111762;28;20197;-59
2022/06/22 02:34:16;;;;;;;5.40;1.50;;;12.20;96.40;;;;;;5111914;28;20176;-59
2022/06/22 02:36:46;;;;;;;4.80;1.10;;;12.20;96.60;;;;;;5111938;28;20242;-59
2022/06/22 02:39:15;;;;;;;3.30;1.13;;;12.20;96.60;;;;;;5111463;28;20573;-58
2022/06/22 02:44:33;;;;;;;1.97;1.20;;;12.30;96.40;;;;;;5112089;28;20195;-59
2022/06/22 02:47:15;;;;;;;1.63;1.03;;;12.30;96.10;;;;;;5114628;28;20272;-58
2022/06/22 02:49:48;;;;;;;2.63;1.50;;;12.40;95.90;;;;;;5115416;28;20197;-59
2022/06/22 02:52:15;;;;;;;2.73;1.10;;;12.50;95.50;;;;;;5115269;28;20182;-59
2022/06/22 02:54:58;;;;;;;8.20;1.40;;;12.50;95.60;;;;;;5115141;28;20176;-58
2022/06/22 02:57:44;;;;;;;1.90;1.00;;;12.70;94.80;;;;;;5115026;28;20168;-58
2022/06/22 03:00:11;;;;;;;2.20;1.13;;;12.80;94.40;;;;;;5114839;28;20180;-61
2022/06/22 03:02:37;;;;;;;1.40;1.10;;;12.90;93.90;;;;;;5115097;28;20179;-59
2022/06/22 03:05:05;;;;;;;2.13;1.00;;;13.10;93.50;;;;;;5114671;28;20269;-57
2022/06/22 03:07:34;;;;;;;3.67;1.10;;;13.20;93.20;;;;;;5114725;28;20220;-58
2022/06/22 03:10:02;;;;;;;2.17;0.80;;;13.30;93.40;;;;;;5114720;28;20649;-58
2022/06/22 03:12:28;;;;;;;7.40;1.03;;;13.30;93.20;;;;;;5114294;28;20188;-58
2022/06/22 03:15:05;;;;;;;5.50;1.37;;;13.30;93.20;;;;;;5114441;28;20209;-59
2022/06/22 03:17:35;;;;;;;3.30;1.10;;;13.30;93.30;;;;;;5114870;28;20188;-58
2022/06/22 03:20:09;;;;;;;2.73;1.00;;;13.30;93.40;;;;;;5114570;28;20176;-58
2022/06/22 03:22:58;;;;;;;1.90;0.90;;;13.30;93.60;;;;;;5114293;28;20270;-59
2022/06/22 03:25:37;;;;;;;1.93;0.90;;;13.30;93.60;;;;;;5114241;28;20238;-58
2022/06/22 03:28:11;;;;;;;1.63;1.00;;;13.30;93.70;;;;;;5114096;28;20295;-59
2022/06/22 03:30:54;;;;;;;2.63;0.90;;;13.40;93.50;;;;;;5114081;28;20190;-59
2022/06/22 03:33:28;;;;;;;1.90;1.10;;;13.50;93.10;;;;;;5114230;28;20183;-58
2022/06/22 03:36:02;;;;;;;4.60;1.37;;;13.70;92.80;;;;;;5114061;28;20176;-58
2022/06/22 03:38:36;;;;;;;1.93;0.93;;;13.90;92.40;;;;;;5114214;28;20195;-58
2022/06/22 03:41:13;;;;;;;2.60;1.20;;;14.00;92.30;;;;;;5113982;28;20188;-59
2022/06/22 03:44:02;;;;;;;3.07;1.40;;;14.10;92.00;;;;;;5113944;28;20623;-58
2022/06/22 03:46:40;;;;;;;5.17;1.33;;;14.20;91.70;;;;;;5095618;28;20255;-59
2022/06/22 03:49:20;;;;;;;7.40;1.80;;;14.30;91.50;;;;;;5113496;28;20180;-61
2022/06/22 03:52:00;;;;;;;4.57;1.07;;;14.50;91.20;;;;;;5113787;28;20184;-58
2022/06/22 03:54:34;;;;;;;1.57;1.00;;;14.60;91.00;;;;;;5113744;28;20225;-58
2022/06/22 03:57:03;;;;;;;4.57;1.20;;;14.70;90.60;;;;;;5113604;28;20187;-57
2022/06/22 03:59:31;;;;;;;2.73;1.07;;;14.80;90.40;;;;;;5113662;28;20213;-57
2022/06/22 04:01:59;;;;;;;3.37;1.00;;;14.90;90.80;;;;;;5113763;28;20644;-59
2022/06/22 04:04:24;;;;;;;6.37;1.40;;;15.00;90.40;;;;;;5113944;28;20203;-59
2022/06/22 04:06:54;;;;;;;4.70;1.50;;;15.10;90.10;;;;;;5095294;28;20216;-59
2022/06/22 04:09:24;;;;;;;3.63;1.23;;;15.20;89.90;;;;;;5113773;28;20259;-58
2022/06/22 04:12:01;;;;;;;3.67;0.83;;;15.30;90.00;;;;;;5114096;28;20257;-58
2022/06/22 04:14:42;;;;;;;6.27;0.60;;;15.40;89.20;;;;;;5113416;28;20194;-59
2022/06/22 04:17:25;;;;;;;4.07;0.90;;;15.50;88.30;;;;;;5113200;28;20229;-59
2022/06/22 04:20:15;;;;;;;2.10;0.93;;;15.60;88.50;;;;;;5113195;28;20172;-57
2022/06/22 04:22:44;;;;;;;3.23;0.77;;;15.80;88.60;;;;;;5113250;28;20548;-59
2022/06/22 04:25:36;;;;;;;3.77;0.70;;;15.80;88.50;;;;;;5112188;28;20248;-59
2022/06/22 04:28:05;;;;;;;8.07;1.10;;;15.90;87.90;;;;;;5113049;28;20241;-58
2022/06/22 04:30:41;;;;;;;2.90;0.67;;;16.00;87.60;;;;;;5112600;28;20179;-58
2022/06/22 04:33:14;;;;;;;1.57;0.50;;;16.00;87.10;;;;;;5112247;28;20171;-59
2022/06/22 04:35:44;;;;;;;9.27;0.80;;;16.10;87.30;;;;;;5112513;28;20510;-58
2022/06/22 04:38:26;;;;;;;3.23;1.00;;;16.20;87.20;;;;;;5112206;28;20243;-58
2022/06/22 04:40:52;;;;;;;12.07;1.20;;;16.20;87.70;;;;;;5095760;28;20176;-58
2022/06/22 04:43:18;;;;;;;4.93;0.83;;;16.30;88.00;;;;;;5111755;28;20554;-58
2022/06/22 04:45:46;;;;;;;3.80;1.00;;;16.40;88.00;;;;;;5112191;28;20253;-58
2022/06/22 04:48:14;;;;;;;4.60;0.83;;;16.40;87.40;;;;;;5112113;28;20200;-59
2022/06/22 04:50:42;;;;;;;3.47;0.90;;;16.50;87.80;;;;;;5111634;28;20180;-58
2022/06/22 04:53:38;;;;;;;4.83;1.30;;;16.60;87.90;;;;;;5112004;28;20196;-61
2022/06/22 04:56:12;;;;;;;9.77;1.00;;;16.50;87.60;;;;;;5109342;28;20207;-59
2022/06/22 04:58:43;;;;;;;11.47;1.07;;;16.50;88.70;;;;;;5112500;28;20589;-60
2022/06/22 05:01:40;;;;;;;21.90;1.53;;;16.50;88.90;;;;;;5111329;28;20168;-59
2022/06/22 05:04:13;;;;;;;11.60;1.30;;;16.40;89.10;;;;;;5110214;28;20247;-58
2022/06/22 05:06:58;;;;;;;7.67;0.70;;;16.40;89.80;;;;;;5093358;28;20267;-59
2022/06/22 05:09:40;;;;;;;13.30;1.57;;;16.50;89.20;;;;;;5110918;28;20204;-62
2022/06/22 05:12:13;;;;;;;16.50;1.47;;;16.50;89.50;;;;;;5111548;28;20207;-63
2022/06/22 05:14:39;;;;;;;13.17;1.00;;;16.60;89.60;;;;;;5101515;27;20200;-69
2022/06/22 05:17:29;;;;;;;9.20;1.23;;;16.60;89.00;;;;;;5098628;28;20205;-62
2022/06/22 05:20:06;;;;;;;4.40;0.90;;;16.60;89.40;;;;;;5101700;28;20200;-67
2022/06/22 05:22:32;;;;;;;8.80;0.87;;;16.60;89.40;;;;;;5109198;28;20210;-70
2022/06/22 05:25:02;;;;;;;13.17;1.90;;;16.60;89.80;;;;;;5108764;28;20238;-72
2022/06/22 05:27:33;;;;;;;10.73;1.50;;;16.60;89.70;;;;;;5076873;28;20258;-59
2022/06/22 05:30:05;;;;;;;7.83;1.30;;;16.60;90.00;;;;;;5085660;28;20212;-61
2022/06/22 05:32:40;;;;;;;13.07;1.67;;;16.70;88.70;;;;;;5106638;28;20287;-61
2022/06/22 05:35:21;;;;;;;11.70;1.20;;;16.80;88.20;;;;;;5108677;28;20191;-60
2022/06/22 05:37:51;;;;;;;3.20;0.77;;;16.80;87.60;;;;;;5110683;28;20295;-59
2022/06/22 05:40:19;;;;;;;22.77;1.80;;;16.90;87.40;;;;;;5110315;28;20635;-58
2022/06/22 05:42:45;;;;;;;5.77;1.10;;;16.90;87.60;;;;;;5110123;28;20260;-61
2022/06/22 05:45:21;;;;;;;7.33;1.13;;;17.00;87.40;;;;;;5097897;28;20643;-64
2022/06/22 05:47:47;;;;;;;16.50;1.20;;;17.00;85.60;;;;;;5108654;28;20215;-65
2022/06/22 05:50:21;;;;;;;5.90;1.20;;;17.00;85.20;;;;;;5089960;28;20200;-64
2022/06/22 05:52:59;;;;;;;10.93;1.07;;;17.10;85.90;;;;;;5107548;28;20185;-63
2022/06/22 05:55:46;;;;;;;5.43;1.10;;;17.40;85.80;;;;;;5106117;28;20192;-61
2022/06/22 05:58:16;;;;;;;10.10;1.50;;;17.60;85.10;;;;;;5107799;28;20202;-62
2022/06/22 06:00:49;;;;;;;9.13;1.30;;;17.80;83.80;;;;;;5109741;28;20180;-62
2022/06/22 06:03:43;;;;;;;7.97;1.03;;;17.70;82.50;;;;;;5108416;28;20176;-64
2022/06/22 06:06:21;;;;;;;4.83;1.00;;;17.60;80.30;;;;;;5106681;28;20250;-62
2022/06/22 06:08:54;;;;;;;8.13;1.27;;;17.40;81.20;;;;;;5110073;28;20594;-68
2022/06/22 06:11:40;;;;;;;9.30;0.83;;;17.40;80.50;;;;;;5109690;28;20196;-62
2022/06/22 06:14:20;;;;;;;11.77;1.10;;;17.30;80.30;;;;;;5109405;28;20203;-63
2022/06/22 06:16:56;;;;;;;16.37;1.80;;;17.20;81.70;;;;;;5109602;28;20191;-61
2022/06/22 06:19:28;;;;;;;8.90;1.10;;;17.30;82.60;;;;;;5112660;27;20195;-59
2022/06/22 06:21:58;;;;;;;6.10;0.87;;;17.30;82.70;;;;;;5108305;27;20208;-60
2022/06/22 06:27:48;;;;;;;5.57;0.80;;;17.30;82.00;;;;;;5075689;28;20327;-67
2022/06/22 06:30:40;;;;;;;7.80;1.80;;;17.30;81.00;;;;;;5089054;28;20193;-56
2022/06/22 06:33:21;;;;;;;4.50;0.73;;;17.30;80.70;;;;;;5072446;28;20178;-59
2022/06/22 06:35:50;;;;;;;0.90;0.60;;;17.20;80.80;;;;;;5090758;28;20642;-63
2022/06/22 06:38:35;;;;;;;7.80;0.90;;;17.10;80.90;;;;;;5093334;28;20192;-66
2022/06/22 06:41:07;;;;;;;8.90;1.17;;;17.00;81.10;;;;;;5080050;28;20180;-64
2022/06/22 06:43:49;;;;;;;7.03;0.83;;;17.10;81.00;;;;;;5087932;28;20193;-63
2022/06/22 06:46:38;;;;;;;4.37;1.27;;;17.20;81.10;;;;;;5092008;28;20673;-62
2022/06/22 06:49:25;;;;;;;6.80;0.80;;;17.30;81.20;;;;;;5092423;28;20185;-72
2022/06/22 06:52:12;;;;;;;5.63;1.00;;;17.20;81.00;;;;;;5092201;28;20201;-54
2022/06/22 06:54:55;;;;;;;4.07;0.70;;;17.20;80.40;;;;;;5083749;28;20254;-85
2022/06/22 06:57:22;;;;;;;2.37;0.80;;;17.20;80.60;;;;;;5081403;28;20216;-78
2022/06/22 07:00:12;;;;;;;1.80;0.70;;;17.10;80.80;;;;;;5072640;28;20227;-68
2022/06/22 07:02:53;;;;;;;6.37;0.93;;;17.20;80.90;;;;;;5092175;28;20177;-70
2022/06/22 07:05:21;;;;;;;2.30;0.57;;;17.20;81.10;;;;;;5086892;28;20192;-61
2022/06/22 07:07:50;;;;;;;3.37;0.73;;;17.00;80.20;;;;;;5085349;28;20224;-61
2022/06/22 07:10:37;;;;;;;4.90;0.77;;;16.90;81.60;;;;;;5068011;28;20617;-60
2022/06/22 07:13:12;;;;;;;5.60;0.50;;;16.90;82.10;;;;;;5088207;28;20254;-63
2022/06/22 07:15:43;;;;;;;4.93;0.60;;;16.90;79.80;;;;;;5082895;28;20269;-60
2022/06/22 07:18:30;;;;;;;2.27;1.10;;;17.00;79.00;;;;;;5057621;28;20242;-61
2022/06/22 07:21:18;;;;;;;8.17;1.17;;;17.20;79.70;;;;;;5092941;28;20620;-61
2022/06/22 07:23:51;;;;;;;7.93;0.93;;;17.40;78.20;;;;;;5086095;28;20181;-60
2022/06/22 07:26:32;;;;;;;5.93;0.93;;;17.70;77.30;;;;;;5094379;28;20392;-60
2022/06/22 07:29:12;;;;;;;4.33;0.80;;;17.80;76.20;;;;;;5112439;28;20662;-64
2022/06/22 07:31:47;;;;;;;3.10;0.80;;;18.10;76.40;;;;;;5111976;28;20187;-60
2022/06/22 07:34:22;;;;;;;12.77;0.87;;;18.50;75.30;;;;;;5113189;28;20180;-62
2022/06/22 07:36:59;;;;;;;4.27;0.60;;;18.50;75.00;;;;;;5113365;28;20188;-61
2022/06/22 07:39:34;;;;;;;5.37;1.23;;;18.70;74.20;;;;;;5112819;28;20251;-62
2022/06/22 07:42:00;;;;;;;3.33;0.60;;;18.60;74.00;;;;;;5113427;28;20283;-62
2022/06/22 07:44:30;;;;;;;3.37;0.77;;;18.70;73.50;;;;;;5113154;28;20341;-63
2022/06/22 07:47:06;;;;;;;1.07;0.40;;;18.50;73.30;;;;;;5093990;28;20765;-64
2022/06/22 07:49:38;;;;;;;7.00;0.60;;;18.50;73.10;;;;;;5112833;28;20542;-63
2022/06/22 07:52:07;;;;;;;9.23;1.03;;;18.40;73.40;;;;;;5112859;28;20643;-62
2022/06/22 07:54:49;;;;;;;5.20;0.60;;;18.50;74.10;;;;;;5113310;28;20659;-63
2022/06/22 07:57:29;;;;;;;1.97;0.83;;;18.40;73.90;;;;;;5112818;28;20195;-64
2022/06/22 08:00:04;;;;;;;3.33;0.80;;;18.50;73.80;;;;;;5112365;28;20264;-64
2022/06/22 08:02:52;;;;;;;3.77;0.70;;;18.40;73.40;;;;;;5112964;28;20588;-67
2022/06/22 08:05:22;;;;;;;8.07;1.60;;;18.30;73.90;;;;;;5094809;28;20693;-63
2022/06/22 08:08:02;;;;;;;10.03;1.00;;;18.20;73.90;;;;;;5112660;28;20239;-62
2022/06/22 08:10:42;;;;;;;3.37;0.80;;;18.10;74.10;;;;;;5102253;28;20180;-63
2022/06/22 08:13:22;;;;;;;5.93;1.23;;;18.30;74.20;;;;;;5112281;28;20214;-63
2022/06/22 08:16:04;;;;;;;4.53;0.60;;;18.60;73.60;;;;;;5111690;28;20179;-62
2022/06/22 08:18:31;;;;;;;1.50;0.80;;;18.90;73.00;;;;;;5112014;28;20589;-62
2022/06/22 08:20:58;;;;;;;4.53;0.87;;;18.70;72.90;;;;;;5112987;28;20614;-62
2022/06/22 08:23:27;;;;;;;1.63;0.67;;;18.80;73.80;;;;;;5111933;28;20271;-62
2022/06/22 08:25:54;;;;;;;4.22;0.52;;;19.10;73.00;;;;;;5111719;28;20558;-61
2022/06/22 08:28:22;;;;;;;6.70;1.10;;;19.00;72.20;;;;;;5111561;28;20197;-64
2022/06/22 08:30:51;;;;;;;7.57;1.10;;;18.90;72.60;;;;;;5111603;28;20337;-61
2022/06/22 08:33:23;;;;;;;8.57;0.90;;;19.00;73.00;;;;;;5092685;28;20199;-63
2022/06/22 08:36:00;;;;;;;3.57;0.70;;;19.00;72.60;;;;;;5111701;28;20179;-61
2022/06/22 08:38:31;;;;;;;3.20;0.70;;;18.90;72.90;;;;;;5111775;28;20169;-61
2022/06/22 08:41:26;;;;;;;7.90;0.95;;;18.90;72.90;;;;;;5112195;28;20508;-62
2022/06/22 08:43:59;;;;;;;11.73;0.88;;;19.10;72.80;;;;;;5110803;28;20623;-62
2022/06/22 08:46:41;;;;;;;5.53;1.40;;;19.30;72.30;;;;;;5111750;28;20208;-62
2022/06/22 08:49:12;;;;;;;7.13;1.00;;;19.40;72.50;;;;;;5091139;27;20185;-64
2022/06/22 08:52:07;;;;;;;5.43;0.77;;;19.60;72.30;;;;;;5113996;27;20179;-61
2022/06/22 08:54:57;;;;;;;5.75;0.65;;;19.60;72.30;;;;;;5132651;27;20274;-63
2022/06/22 08:57:38;;;;;;;4.53;0.80;;;19.40;71.80;;;;;;5131790;27;20229;-63
2022/06/22 09:00:14;;;;;;;9.88;0.70;;;19.40;72.80;;;;;;5132086;27;20186;-69
2022/06/22 09:02:58;;;;;;;3.70;0.90;;;19.70;72.40;;;;;;5131970;27;20184;-63
2022/06/22 09:06:01;;;;;;;12.45;1.08;;;19.80;72.50;;;;;;5117128;27;20179;-60
2022/06/22 09:08:46;;;;;;;4.00;1.20;;;19.90;71.60;;;;;;5110920;28;20700;-62
2022/06/22 09:11:20;;;;;;;2.35;0.77;;;19.90;72.20;;;;;;5110522;28;20306;-61
2022/06/22 09:13:52;;;;;;;0.95;0.52;;;19.70;72.80;;;;;;5111827;28;20179;-60
2022/06/22 09:16:55;;;;;;;3.05;0.90;;;19.70;72.50;;;;;;5111192;28;20199;-60
2022/06/22 09:19:44;;;;;;;7.38;0.63;;;19.60;72.70;;;;;;5110405;28;20179;-59
2022/06/22 09:22:23;;;;;;;5.85;1.48;;;19.60;73.30;;;;;;5111124;28;20575;-61
2022/06/22 09:24:54;;;;;;;9.70;0.98;;;19.70;73.70;;;;;;5103695;27;20249;-63
2022/06/22 09:27:43;;;;;;;5.53;1.02;;;19.80;73.90;;;;;;5129838;27;20215;-62
2022/06/22 09:30:44;;;;;;;1.38;0.52;;;19.90;73.50;;;;;;5113666;28;20202;-61
2022/06/22 09:33:36;;;;;;;4.72;0.93;;;20.00;73.70;;;;;;5076499;27;20190;-61
2022/06/22 09:36:23;;;;;;;8.73;1.35;;;20.10;72.90;;;;;;5100693;28;20176;-61
2022/06/22 09:39:04;;;;;;;9.07;0.98;;;20.30;72.90;;;;;;5111497;28;20184;-60
2022/06/22 09:41:49;;;;;;;3.95;0.80;;;20.20;72.40;;;;;;5111152;28;20241;-63
2022/06/22 09:44:33;;;;;;;9.82;1.55;;;20.20;72.50;;;;;;5111172;28;20172;-61
2022/06/22 09:47:09;;;;;;;17.05;1.38;;;20.10;72.10;;;;;;5110922;28;20216;-62
2022/06/22 09:49:44;;;;;;;3.75;1.00;;;20.40;72.60;;;;;;5106231;28;20172;-62
2022/06/22 09:52:19;;;;;;;0.60;0.50;;;20.50;71.20;;;;;;5090687;28;20259;-63
2022/06/22 09:58:00;;;;;;;1.80;0.80;;;20.10;71.90;;;;;;5094980;28;20203;-61
2022/06/22 10:00:52;;;;;;;3.15;0.60;;;20.20;71.90;;;;;;5094563;28;20176;-63
2022/06/22 10:03:43;;;;;;;9.20;1.20;;;20.30;71.70;;;;;;5062382;28;20545;-60
2022/06/22 10:06:28;;;;;;;1.73;0.65;;;20.60;71.70;;;;;;5094528;28;20177;-60
2022/06/22 10:08:53;;;;;;;6.18;1.13;;;20.80;70.80;;;;;;5094619;28;20173;-59
2022/06/22 10:11:36;;;;;;;9.75;1.45;;;21.00;70.60;;;;;;5111605;28;21059;-61
2022/06/22 10:14:20;;;;;;;11.60;1.30;;;21.10;69.90;;;;;;5114830;28;20335;-60
2022/06/22 10:16:52;;;;;;;5.78;0.95;;;21.30;69.30;;;;;;5113144;28;20626;-62
2022/06/22 10:19:52;;;;;;;2.72;1.10;;;21.10;68.40;;;;;;5112801;28;20269;-61
2022/06/22 10:22:56;;;;;;;3.78;0.77;;;21.10;69.00;;;;;;5076204;28;20193;-63
2022/06/22 10:25:51;;;;;;;1.52;0.63;;;21.30;69.50;;;;;;5093745;28;20227;-60
2022/06/22 10:28:34;;;;;;;3.90;0.80;;;21.70;68.00;;;;;;5093969;28;20595;-61
2022/06/22 10:31:15;;;;;;;2.78;0.82;;;21.70;68.90;;;;;;5094804;28;20250;-62
2022/06/22 10:34:06;;;;;;;1.17;0.88;;;21.80;67.60;;;;;;5093221;28;20188;-64
2022/06/22 10:37:06;;;;;;;4.82;0.80;;;21.80;68.20;;;;;;5072361;28;20283;-62
2022/06/22 10:40:11;;;;;;;8.88;0.85;;;21.80;67.90;;;;;;5096239;28;20188;-62
2022/06/22 10:45:54;;;;;;;7.38;1.23;;;21.70;66.60;;;;;;5114432;28;20546;-61
2022/06/22 10:48:49;;;;;;;3.55;0.50;;;22.10;66.30;;;;;;5113505;28;20276;-61
2022/06/22 10:52:10;;;;;;;5.00;0.90;;;22.30;64.90;;;;;;5113820;28;20185;-64
2022/06/22 10:54:39;;;;;;;6.30;1.08;;;22.20;65.50;;;;;;5041395;28;20253;-62
2022/06/22 10:57:13;;;;;;;15.68;1.15;;;22.50;65.10;;;;;;5114028;28;20180;-61
2022/06/22 11:00:14;;;;;;;2.88;0.93;;;22.50;65.30;;;;;;5113944;28;20268;-61
2022/06/22 11:02:52;;;;;;;6.43;0.75;;;22.30;64.40;;;;;;5113135;28;20191;-61
2022/06/22 11:05:20;;;;;;;13.20;1.75;;;22.30;64.60;;;;;;5112963;28;20176;-62
2022/06/22 11:07:49;;;;;;;4.15;0.73;;;22.60;65.10;;;;;;5112086;28;20216;-62
2022/06/22 11:10:37;;;;;;;4.38;1.40;;;22.50;63.00;;;;;;5113975;28;20183;-61
2022/06/22 11:13:20;;;;;;;5.60;0.95;;;22.00;64.70;;;;;;5113687;28;20188;-61
2022/06/22 11:16:20;;;;;;;6.18;1.10;;;22.10;64.80;;;;;;5095483;28;20223;-62
2022/06/22 11:19:01;;;;;;;6.03;1.45;;;22.40;63.90;;;;;;5113707;28;20214;-62
2022/06/22 11:21:51;;;;;;;1.70;0.90;;;22.60;63.40;;;;;;5113378;28;20184;-62
2022/06/22 11:24:32;;;;;;;6.30;1.00;;;22.30;63.90;;;;;;5113780;28;20183;-61
2022/06/22 11:33:01;;;;;;;11.35;1.75;;;24.50;59.40;;;;;;5113453;28;20267;-63
2022/06/22 11:35:38;;;;;;;5.88;1.08;;;24.20;60.00;;;;;;5113162;28;20198;-61
2022/06/22 11:38:28;;;;;;;8.73;0.82;;;23.80;60.20;;;;;;5113191;28;20180;-61
2022/06/22 11:41:20;;;;;;;15.18;1.38;;;23.40;60.50;;;;;;5113023;28;20176;-61
2022/06/22 11:44:15;;;;;;;7.22;0.90;;;22.60;61.30;;;;;;5113696;28;20165;-60
2022/06/22 11:46:47;;;;;;;2.60;0.70;;;22.00;63.90;;;;;;5113143;28;20200;-65
2022/06/22 11:49:32;;;;;;;2.30;1.13;;;21.80;65.00;;;;;;5113496;28;20176;-67
2022/06/22 11:52:01;;;;;;;4.25;0.90;;;21.90;64.90;;;;;;5113643;28;20233;-63
2022/06/22 11:54:54;;;;;;;9.02;1.38;;;22.30;64.30;;;;;;5113127;28;20203;-60
2022/06/22 11:57:41;;;;;;;12.18;1.60;;;22.40;63.20;;;;;;5094420;28;20192;-60
2022/06/22 12:00:10;;;;;;;7.78;1.15;;;22.30;63.90;;;;;;5113237;28;20176;-59
2022/06/22 12:02:45;;;;;;;8.98;1.00;;;22.10;63.60;;;;;;5111985;28;20216;-61
2022/06/22 12:05:21;;;;;;;3.83;0.80;;;21.70;63.80;;;;;;5112423;28;20198;-62
2022/06/22 12:08:05;;;;;;;5.90;1.15;;;22.10;64.10;;;;;;5112996;28;20211;-62
2022/06/22 12:10:40;;;;;;;2.05;1.02;;;22.30;63.70;;;;;;5112730;28;20169;-61
2022/06/22 12:13:12;;;;;;;5.20;1.10;;;22.60;63.00;;;;;;5112427;28;20176;-62
2022/06/22 12:16:08;;;;;;;4.63;1.00;;;22.50;62.90;;;;;;5112800;28;20180;-62
2022/06/22 12:19:08;;;;;;;4.90;1.17;;;22.30;63.40;;;;;;5112568;28;20208;-61
2022/06/22 12:21:52;;;;;;;7.28;1.02;;;22.60;63.50;;;;;;5091699;28;20181;-61
2022/06/22 12:24:20;;;;;;;1.92;0.80;;;22.80;63.40;;;;;;5092036;28;20222;-62
2022/06/22 12:27:24;;;;;;;4.78;1.15;;;23.20;63.10;;;;;;5091516;28;20294;-61
2022/06/22 12:30:17;;;;;;;2.50;0.90;;;23.80;60.30;;;;;;5092247;28;20177;-60
2022/06/22 12:33:10;;;;;;;2.45;0.65;;;24.30;58.70;;;;;;5091210;28;20538;-62
2022/06/22 12:35:56;;;;;;;3.92;0.90;;;25.00;57.80;;;;;;5082453;28;20268;-62
2022/06/22 12:38:35;;;;;;;3.50;1.00;;;25.50;56.80;;;;;;5111996;28;20187;-63
2022/06/22 12:41:33;;;;;;;4.38;0.80;;;26.50;55.70;;;;;;5112023;28;20183;-62
2022/06/22 12:44:29;;;;;;;7.65;1.23;;;25.60;54.60;;;;;;5093549;28;20185;-62
2022/06/22 12:47:00;;;;;;;6.03;0.88;;;24.80;57.10;;;;;;5108285;28;20219;-59
2022/06/22 12:49:35;;;;;;;2.47;1.00;;;25.80;55.10;;;;;;5096988;27;20259;-63
2022/06/22 12:52:06;;;;;;;2.83;1.10;;;27.30;53.00;;;;;;5132711;27;20171;-63
2022/06/22 12:54:41;;;;;;;5.40;1.10;;;26.10;53.30;;;;;;5132311;27;20240;-62
2022/06/22 12:57:13;;;;;;;0.40;0.40;;;25.30;55.60;;;;;;5132961;27;20228;-64
2022/06/22 12:59:55;;;;;;;4.85;1.35;;;24.50;57.20;;;;;;5131990;27;20262;-61
2022/06/22 13:02:27;;;;;;;4.07;0.90;;;23.80;58.20;;;;;;5113039;27;20189;-62
2022/06/22 13:05:03;;;;;;;1.83;0.77;;;23.40;59.10;;;;;;5096637;28;20181;-62
2022/06/22 13:07:32;;;;;;;2.38;0.55;;;25.20;57.60;;;;;;5092057;28;20554;-62
2022/06/22 13:09:58;;;;;;;6.13;1.42;;;25.90;54.10;;;;;;5109668;28;20180;-61
2022/06/22 13:12:38;;;;;;;10.00;1.25;;;26.00;54.10;;;;;;5104957;28;20189;-62
2022/06/22 13:15:10;;;;;;;2.15;0.98;;;24.90;55.60;;;;;;5095890;28;20204;-60
2022/06/22 13:17:58;;;;;;;9.57;1.60;;;24.80;56.60;;;;;;5096047;28;20215;-62
2022/06/22 13:20:33;;;;;;;8.35;0.85;;;24.10;56.70;;;;;;5111869;27;20188;-62
2022/06/22 13:23:16;;;;;;;4.60;0.90;;;23.60;57.30;;;;;;5111185;28;20608;-62
2022/06/22 13:26:19;;;;;;;1.25;0.68;;;25.30;56.00;;;;;;5110422;28;20299;-68
2022/06/22 13:29:19;;;;;;;1.45;0.70;;;26.30;53.30;;;;;;5001407;28;20200;-60
2022/06/22 13:31:48;;;;;;;3.30;0.88;;;26.30;54.00;;;;;;5099705;28;20180;-61
2022/06/22 13:34:50;;;;;;;2.10;0.60;;;26.60;53.80;;;;;;5110897;28;20189;-64
2022/06/22 13:37:29;;;;;;;3.63;0.82;;;25.40;54.30;;;;;;5094393;28;20196;-61
2022/06/22 13:40:29;;;;;;;1.52;0.60;;;24.80;56.10;;;;;;5110843;28;20289;-60
2022/06/22 13:43:03;;;;;;;3.42;1.08;;;24.60;55.70;;;;;;5079975;28;20184;-60
2022/06/22 13:45:57;;;;;;;4.95;0.65;;;23.90;55.90;;;;;;5110540;28;20278;-62
2022/06/22 13:48:45;;;;;;;6.28;1.67;;;23.80;56.00;;;;;;5107810;28;20253;-61
2022/06/22 13:51:51;;;;;;;2.97;0.95;;;23.90;56.40;;;;;;5117420;28;20180;-61
2022/06/22 13:54:29;;;;;;;6.72;1.00;;;25.50;55.10;;;;;;5096981;28;20248;-61
2022/06/22 13:57:10;;;;;;;5.55;1.38;;;26.50;51.80;;;;;;5110439;28;20658;-62
2022/06/22 14:00:02;;;;;;;3.25;0.60;;;25.60;52.90;;;;;;5111068;28;20279;-63
2022/06/22 14:02:51;;;;;;;5.63;1.33;;;25.00;54.10;;;;;;5091361;28;20284;-65
2022/06/22 14:05:24;;;;;;;2.17;1.10;;;24.50;55.40;;;;;;5104125;28;20184;-63
2022/06/22 14:08:13;;;;;;;5.65;1.15;;;24.20;56.50;;;;;;5110746;28;20208;-61
2022/06/22 14:11:25;;;;;;;15.85;1.30;;;24.10;56.20;;;;;;5110059;28;20198;-64